createdAt,value
2019-03-18T00:02:28.010Z,100303.82
2019-03-18T00:04:59.218Z,100307.80
2019-03-18T00:07:30.476Z,100298.28
2019-03-18T00:10:01.764Z,100301.06
2019-03-18T00:12:33.142Z,100304.51
2019-03-18T00:15:08.290Z,100299.34
2019-03-18T00:17:39.561Z,100307.39
2019-03-18T00:20:12.058Z,100298.83
2019-03-18T00:22:43.422Z,100300.66
2019-03-18T00:25:17.696Z,100301.19
2019-03-18T00:27:48.983Z,100304.01
2019-03-18T00:30:21.211Z,100294.65
2019-03-18T00:32:52.469Z,100306.62
2019-03-18T00:35:23.884Z,100308.56
2019-03-18T00:37:55.166Z,100313.11
2019-03-18T00:40:26.514Z,100314.37
2019-03-18T00:42:57.817Z,100309.50
2019-03-18T00:45:29.071Z,100317.34
2019-03-18T00:48:00.483Z,100304.06
2019-03-18T00:50:31.719Z,100305.84
2019-03-18T00:53:03.008Z,100306.62
2019-03-18T00:55:34.338Z,100300.03
2019-03-18T00:58:05.706Z,100307.41
2019-03-18T01:00:37.209Z,100304.69
2019-03-18T01:03:08.510Z,100301.03
2019-03-18T01:05:39.969Z,100301.81
2019-03-18T01:08:12.417Z,100306.21
2019-03-18T01:10:43.685Z,100311.02
2019-03-18T01:13:15.015Z,100306.27
2019-03-18T01:15:47.834Z,100312.06
2019-03-18T01:18:19.213Z,100314.73
2019-03-18T01:20:50.608Z,100315.20
2019-03-18T01:23:21.961Z,100318.77
2019-03-18T01:25:54.158Z,100322.69
2019-03-18T01:28:25.589Z,100332.31
2019-03-18T01:30:56.876Z,100336.70
2019-03-18T01:33:28.272Z,100341.63
2019-03-18T01:35:59.501Z,100338.67
2019-03-18T01:38:30.761Z,100342.23
2019-03-18T01:41:01.985Z,100343.23
2019-03-18T01:43:33.257Z,100342.44
2019-03-18T01:46:04.492Z,100347.78
2019-03-18T01:48:35.845Z,100351.75
2019-03-18T01:51:07.085Z,100344.69
2019-03-18T01:53:38.354Z,100346.41
2019-03-18T01:56:09.584Z,100344.27
2019-03-18T01:58:40.804Z,100349.03
2019-03-18T02:01:12.167Z,100337.62
2019-03-18T02:03:43.504Z,100340.61
2019-03-18T02:06:14.797Z,100341.81
2019-03-18T02:08:46.231Z,100347.33
2019-03-18T02:11:17.471Z,100347.22
2019-03-18T02:13:48.842Z,100349.84
2019-03-18T02:16:20.069Z,100350.78
2019-03-18T02:18:51.600Z,100347.83
2019-03-18T02:21:22.892Z,100352.38
2019-03-18T02:23:54.167Z,100350.81
2019-03-18T02:26:25.456Z,100352.64
2019-03-18T02:29:06.471Z,100354.73
2019-03-18T02:31:37.965Z,100352.06
2019-03-18T02:34:09.260Z,100352.87
2019-03-18T02:36:41.670Z,100347.69
2019-03-18T02:39:12.893Z,100351.18
2019-03-18T02:41:44.174Z,100351.22
2019-03-18T02:44:15.505Z,100353.70
2019-03-18T02:46:46.803Z,100358.70
2019-03-18T02:49:18.089Z,100367.56
2019-03-18T02:51:52.730Z,100365.61
2019-03-18T02:54:22.409Z,100374.23
2019-03-18T02:56:53.763Z,100369.89
2019-03-18T02:59:24.995Z,100369.12
2019-03-18T03:01:56.315Z,100366.67
2019-03-18T03:04:27.899Z,100370.30
2019-03-18T03:06:59.176Z,100373.13
2019-03-18T03:09:31.250Z,100359.23
2019-03-18T03:12:02.527Z,100365.46
2019-03-18T03:14:33.809Z,100362.59
2019-03-18T03:17:05.285Z,100351.56
2019-03-18T03:19:36.574Z,100350.73
2019-03-18T03:22:07.945Z,100356.42
2019-03-18T03:24:40.197Z,100353.81
2019-03-18T03:27:11.540Z,100353.92
2019-03-18T03:29:42.771Z,100347.39
2019-03-18T03:32:14.326Z,100349.16
2019-03-18T03:34:45.619Z,100359.20
2019-03-18T03:37:16.984Z,100360.56
2019-03-18T03:39:48.299Z,100354.39
2019-03-18T03:42:19.729Z,100360.77
2019-03-18T03:44:51.015Z,100366.77
2019-03-18T03:47:22.589Z,100369.52
2019-03-18T03:49:53.817Z,100374.23
2019-03-18T03:52:25.235Z,100377.86
2019-03-18T03:54:56.592Z,100382.62
2019-03-18T03:57:28.098Z,100392.47
2019-03-18T03:59:59.541Z,100396.27
2019-03-18T04:02:30.979Z,100397.52
2019-03-18T04:05:02.346Z,100399.30
2019-03-18T04:07:33.729Z,100394.01
2019-03-18T04:10:16.674Z,100397.03
2019-03-18T04:12:48.173Z,100392.16
2019-03-18T04:15:19.574Z,100399.94
2019-03-18T04:17:50.870Z,100408.66
2019-03-18T04:20:22.136Z,100403.44
2019-03-18T04:22:53.404Z,100415.60
2019-03-18T04:25:24.637Z,100424.33
2019-03-18T04:27:56.221Z,100437.57
2019-03-18T04:30:27.440Z,100435.44
2019-03-18T04:32:58.788Z,100444.77
2019-03-18T04:35:30.104Z,100442.52
2019-03-18T04:38:01.353Z,100442.70
2019-03-18T04:40:32.644Z,100442.41
2019-03-18T04:43:03.926Z,100438.66
2019-03-18T04:45:35.210Z,100426.30
2019-03-18T04:48:06.583Z,100421.90
2019-03-18T04:50:37.913Z,100424.14
2019-03-18T04:53:09.191Z,100418.00
2019-03-18T04:55:40.559Z,100427.37
2019-03-18T04:58:11.853Z,100422.63
2019-03-18T05:00:43.083Z,100431.41
2019-03-18T05:03:14.433Z,100433.72
2019-03-18T05:05:45.659Z,100445.12
2019-03-18T05:08:16.927Z,100442.57
2019-03-18T05:10:49.017Z,100447.86
2019-03-18T05:13:20.291Z,100452.30
2019-03-18T05:15:51.593Z,100458.95
2019-03-18T05:18:22.964Z,100463.24
2019-03-18T05:20:54.253Z,100478.52
2019-03-18T05:23:25.526Z,100481.55
2019-03-18T05:25:56.758Z,100469.84
2019-03-18T05:28:29.237Z,100480.72
2019-03-18T05:31:00.699Z,100484.22
2019-03-18T05:33:32.224Z,100486.00
2019-03-18T05:36:03.603Z,100488.56
2019-03-18T05:38:35.026Z,100490.34
2019-03-18T05:41:06.257Z,100497.78
2019-03-18T05:43:37.607Z,100501.23
2019-03-18T05:46:10.785Z,100508.23
2019-03-18T05:48:42.098Z,100506.93
2019-03-18T05:51:13.327Z,100506.56
2019-03-18T05:53:44.818Z,100513.11
2019-03-18T05:56:16.128Z,100517.45
2019-03-18T05:58:49.051Z,100519.17
2019-03-18T06:01:20.349Z,100523.52
2019-03-18T06:03:51.654Z,100524.34
2019-03-18T06:06:28.720Z,100535.65
2019-03-18T06:08:59.988Z,100519.42
2019-03-18T06:11:31.275Z,100524.12
2019-03-18T06:14:04.043Z,100528.87
2019-03-18T06:16:35.270Z,100528.64
2019-03-18T06:19:06.612Z,100525.50
2019-03-18T06:21:37.903Z,100535.23
2019-03-18T06:24:09.273Z,100552.35
2019-03-18T06:26:40.746Z,100543.20
2019-03-18T06:29:12.083Z,100550.22
2019-03-18T06:31:43.386Z,100552.35
2019-03-18T06:34:14.661Z,100560.85
2019-03-18T06:36:45.962Z,100568.40
2019-03-18T06:39:17.304Z,100576.30
2019-03-18T06:41:48.906Z,100577.48
2019-03-18T06:44:20.413Z,100575.91
2019-03-18T06:46:51.759Z,100575.67
2019-03-18T06:49:23.206Z,100576.62
2019-03-18T06:51:54.400Z,100578.34
2019-03-18T06:54:26.849Z,100587.33
2019-03-18T06:56:58.055Z,100593.09
2019-03-18T06:59:29.341Z,100593.73
2019-03-18T07:02:00.665Z,100596.23
2019-03-18T07:04:32.008Z,100598.41
2019-03-18T07:07:04.384Z,100605.09
2019-03-18T07:09:35.824Z,100614.31
2019-03-18T07:12:07.067Z,100612.48
2019-03-18T07:14:38.431Z,100611.17
2019-03-18T07:17:09.701Z,100623.37
2019-03-18T07:19:40.949Z,100614.93
2019-03-18T07:22:12.267Z,100618.13
2019-03-18T07:24:43.657Z,100623.65
2019-03-18T07:27:14.997Z,100615.55
2019-03-18T07:29:46.371Z,100624.93
2019-03-18T07:32:17.589Z,100621.59
2019-03-18T07:34:49.114Z,100621.59
2019-03-18T07:37:20.339Z,100631.64
2019-03-18T07:39:51.629Z,100644.80
2019-03-18T07:42:22.957Z,100622.28
2019-03-18T07:44:54.182Z,100626.73
2019-03-18T07:47:26.176Z,100623.22
2019-03-18T07:49:57.393Z,100627.31
2019-03-18T07:52:28.772Z,100615.95
2019-03-18T07:55:00.042Z,100619.42
2019-03-18T07:57:32.766Z,100608.67
2019-03-18T08:00:10.379Z,100617.11
2019-03-18T08:02:41.839Z,100613.28
2019-03-18T08:05:13.341Z,100593.98
2019-03-18T08:07:44.792Z,100599.75
2019-03-18T08:10:16.197Z,100601.85
2019-03-18T08:12:47.468Z,100606.57
2019-03-18T08:15:18.727Z,100604.48
2019-03-18T08:17:50.127Z,100603.16
2019-03-18T08:20:21.463Z,100609.41
2019-03-18T08:22:52.710Z,100602.58
2019-03-18T08:25:24.074Z,100607.45
2019-03-18T08:27:55.362Z,100617.58
2019-03-18T08:30:26.582Z,100621.27
2019-03-18T08:32:57.917Z,100623.36
2019-03-18T08:35:29.261Z,100621.50
2019-03-18T08:38:00.573Z,100621.95
2019-03-18T08:40:31.990Z,100627.63
2019-03-18T08:43:03.342Z,100617.27
2019-03-18T08:45:34.665Z,100620.75
2019-03-18T08:48:06.094Z,100614.58
2019-03-18T08:50:37.387Z,100620.34
2019-03-18T08:53:08.675Z,100623.52
2019-03-18T08:55:40.023Z,100615.88
2019-03-18T08:58:11.249Z,100634.50
2019-03-18T09:00:42.598Z,100641.07
2019-03-18T09:03:13.852Z,100630.05
2019-03-18T09:05:45.415Z,100621.38
2019-03-18T09:08:16.641Z,100647.91
2019-03-18T09:10:47.921Z,100629.74
2019-03-18T09:13:21.127Z,100619.57
2019-03-18T09:15:52.648Z,100632.63
2019-03-18T09:18:24.028Z,100637.30
2019-03-18T09:20:55.329Z,100646.70
2019-03-18T09:23:26.635Z,100653.83
2019-03-18T09:25:58.006Z,100653.86
2019-03-18T09:28:29.364Z,100656.58
2019-03-18T09:31:00.703Z,100663.86
2019-03-18T09:33:31.970Z,100668.09
2019-03-18T09:36:03.258Z,100663.58
2019-03-18T09:38:34.551Z,100678.67
2019-03-18T09:41:05.960Z,100674.84
2019-03-18T09:43:37.253Z,100685.56
2019-03-18T09:46:08.596Z,100695.23
2019-03-18T09:48:39.823Z,100703.75
2019-03-18T09:51:11.225Z,100698.18
2019-03-18T09:53:42.445Z,100709.45
2019-03-18T09:56:13.716Z,100704.92
2019-03-18T09:58:45.006Z,100699.81
2019-03-18T10:01:16.350Z,100711.11
2019-03-18T10:03:47.688Z,100705.38
2019-03-18T10:06:19.077Z,100712.62
2019-03-18T10:08:50.464Z,100715.48
2019-03-18T10:11:21.755Z,100706.33
2019-03-18T10:13:52.956Z,100711.78
2019-03-18T10:16:24.464Z,100712.06
2019-03-18T10:18:55.789Z,100720.62
2019-03-18T10:21:27.067Z,100720.09
2019-03-18T10:23:58.301Z,100717.11
2019-03-18T10:26:31.955Z,100714.23
2019-03-18T10:29:03.282Z,100707.23
2019-03-18T10:31:34.620Z,100719.09
2019-03-18T10:34:05.905Z,100727.59
2019-03-18T10:36:37.252Z,100735.58
2019-03-18T10:39:08.544Z,100731.36
2019-03-18T10:41:39.818Z,100726.40
2019-03-18T10:44:11.043Z,100724.47
2019-03-18T10:46:42.448Z,100740.56
2019-03-18T10:49:13.734Z,100718.53
2019-03-18T10:51:45.089Z,100722.23
2019-03-18T10:54:16.308Z,100738.63
2019-03-18T10:56:47.679Z,100727.48
2019-03-18T10:59:19.048Z,100722.35
2019-03-18T11:01:50.326Z,100715.09
2019-03-18T11:04:21.547Z,100733.28
2019-03-18T11:06:53.003Z,100734.61
2019-03-18T11:09:24.362Z,100727.52
2019-03-18T11:11:55.642Z,100733.70
2019-03-18T11:14:27.121Z,100739.71
2019-03-18T11:16:58.408Z,100730.17
2019-03-18T11:19:29.711Z,100738.05
2019-03-18T11:22:01.129Z,100733.55
2019-03-18T11:24:32.348Z,100740.88
2019-03-18T11:27:03.695Z,100739.76
2019-03-18T11:29:34.907Z,100739.58
2019-03-18T11:32:06.326Z,100746.13
2019-03-18T11:34:37.559Z,100742.34
2019-03-18T11:37:08.923Z,100747.04
2019-03-18T11:39:40.477Z,100745.48
2019-03-18T11:42:11.827Z,100738.19
2019-03-18T11:44:43.056Z,100737.37
2019-03-18T11:47:14.508Z,100740.16
2019-03-18T11:49:45.853Z,100732.56
2019-03-18T11:52:17.235Z,100738.36
2019-03-18T11:54:48.645Z,100736.56
2019-03-18T11:57:20.071Z,100733.91
2019-03-18T11:59:51.378Z,100730.02
2019-03-18T12:02:27.586Z,100732.00
2019-03-18T12:04:57.619Z,100729.17
2019-03-18T12:07:28.692Z,100730.65
2019-03-18T12:10:00.018Z,100731.02
2019-03-18T12:12:31.377Z,100735.87
2019-03-18T12:15:02.616Z,100725.17
2019-03-18T12:17:35.940Z,100735.31
2019-03-18T12:20:23.664Z,100730.08
2019-03-18T12:22:44.507Z,100727.45
2019-03-18T12:25:17.400Z,100726.88
2019-03-18T12:27:48.682Z,100723.56
2019-03-18T12:30:21.607Z,100723.11
2019-03-18T12:32:52.964Z,100718.59
2019-03-18T12:35:24.340Z,100726.68
2019-03-18T12:37:55.829Z,100715.80
2019-03-18T12:40:27.089Z,100719.95
2019-03-18T12:42:58.486Z,100719.58
2019-03-18T12:45:29.809Z,100720.59
2019-03-18T12:48:03.268Z,100725.97
2019-03-18T12:50:54.536Z,100723.95
2019-03-18T12:53:07.604Z,100729.45
2019-03-18T12:55:38.916Z,100719.81
2019-03-18T12:58:10.206Z,100707.12
2019-03-18T13:00:41.608Z,100703.23
2019-03-18T13:03:13.396Z,100702.13
2019-03-18T13:05:44.770Z,100701.27
2019-03-18T13:08:16.135Z,100698.31
2019-03-18T13:10:47.454Z,100708.80
2019-03-18T13:13:20.251Z,100698.56
2019-03-18T13:15:51.525Z,100699.52
2019-03-18T13:18:22.809Z,100710.23
2019-03-18T13:21:07.049Z,100702.25
2019-03-18T13:23:27.181Z,100711.61
2019-03-18T13:25:58.535Z,100702.25
2019-03-18T13:28:29.789Z,100697.05
2019-03-18T13:31:01.062Z,100705.66
2019-03-18T13:33:32.468Z,100697.05
2019-03-18T13:36:03.790Z,100703.20
2019-03-18T13:38:35.155Z,100706.51
2019-03-18T13:41:06.722Z,100707.62
2019-03-18T13:43:38.197Z,100714.34
2019-03-18T13:46:09.730Z,100711.23
2019-03-18T13:48:42.196Z,100708.28
2019-03-18T13:51:20.795Z,100702.43
2019-03-18T13:53:46.712Z,100705.02
2019-03-18T13:56:18.125Z,100699.11
2019-03-18T13:58:49.434Z,100704.71
2019-03-18T14:01:20.741Z,100701.00
2019-03-18T14:03:52.142Z,100713.17
2019-03-18T14:06:23.461Z,100723.09
2019-03-18T14:08:55.317Z,100754.49
2019-03-18T14:11:26.866Z,100772.41
2019-03-18T14:13:58.226Z,100776.10
2019-03-18T14:16:29.730Z,100781.88
2019-03-18T14:19:01.163Z,100791.12
2019-03-18T14:21:34.161Z,100803.91
2019-03-18T14:24:05.697Z,100796.34
2019-03-18T14:26:37.125Z,100827.33
2019-03-18T14:29:08.537Z,100813.05
2019-03-18T14:31:39.820Z,100801.97
2019-03-18T14:34:11.301Z,100783.84
2019-03-18T14:36:42.587Z,100770.03
2019-03-18T14:39:14.016Z,100751.48
2019-03-18T14:41:45.505Z,100734.72
2019-03-18T14:44:16.795Z,100743.27
2019-03-18T14:46:48.032Z,100747.94
2019-03-18T14:49:19.614Z,100747.12
2019-03-18T14:51:51.689Z,100750.78
2019-03-18T14:54:23.231Z,100754.73
2019-03-18T14:56:54.587Z,100739.84
2019-03-18T14:59:26.002Z,100746.69
2019-03-18T15:01:57.307Z,100741.94
2019-03-18T15:04:28.589Z,100743.95
2019-03-18T15:06:59.996Z,100735.87
2019-03-18T15:09:31.538Z,100733.59
2019-03-18T15:12:02.778Z,100741.16
2019-03-18T15:14:34.200Z,100726.26
2019-03-18T15:17:05.611Z,100722.88
2019-03-18T15:19:37.786Z,100728.72
2019-03-18T15:22:09.360Z,100730.16
2019-03-18T15:24:40.940Z,100739.25
2019-03-18T15:27:12.377Z,100743.75
2019-03-18T15:29:43.960Z,100740.72
2019-03-18T15:32:15.382Z,100746.73
2019-03-18T15:34:46.836Z,100747.73
2019-03-18T15:37:19.049Z,100752.97
2019-03-18T15:39:50.399Z,100760.39
2019-03-18T15:42:21.893Z,100764.25
2019-03-18T15:44:53.504Z,100773.10
2019-03-18T15:47:24.935Z,100772.13
2019-03-18T15:49:56.404Z,100778.41
2019-03-18T15:52:27.706Z,100788.19
2019-03-18T15:54:59.237Z,100794.31
2019-03-18T15:57:30.745Z,100788.27
2019-03-18T16:00:02.258Z,100800.82
2019-03-18T16:02:33.727Z,100811.00
2019-03-18T16:05:07.119Z,100813.52
2019-03-18T16:07:39.689Z,100819.98
2019-03-18T16:10:18.329Z,100823.37
2019-03-18T16:12:49.851Z,100828.09
2019-03-18T16:15:24.044Z,100824.70
2019-03-18T16:17:55.279Z,100839.61
2019-03-18T16:20:28.188Z,100836.07
2019-03-18T16:23:01.118Z,100843.02
2019-03-18T16:25:32.564Z,100845.02
2019-03-18T16:28:03.965Z,100869.55
2019-03-18T16:30:35.546Z,100880.73
2019-03-18T16:33:06.864Z,100883.02
2019-03-18T16:35:38.279Z,100869.91
2019-03-18T16:38:09.597Z,100864.35
2019-03-18T16:40:41.178Z,100843.83
2019-03-18T16:43:12.570Z,100846.67
2019-03-18T16:45:43.929Z,100846.38
2019-03-18T16:48:15.190Z,100845.83
2019-03-18T16:50:46.549Z,100849.53
2019-03-18T16:53:17.844Z,100845.61
2019-03-18T16:55:50.784Z,100843.08
2019-03-18T16:58:22.225Z,100846.91
2019-03-18T17:00:53.647Z,100856.42
2019-03-18T17:03:37.108Z,100861.09
2019-03-18T17:06:08.491Z,100862.11
2019-03-18T17:08:39.854Z,100867.59
2019-03-18T17:11:11.145Z,100869.58
2019-03-18T17:13:43.456Z,100873.94
2019-03-18T17:16:16.429Z,100879.48
2019-03-18T17:18:47.667Z,100877.30
2019-03-18T17:21:19.167Z,100876.50
2019-03-18T17:23:50.386Z,100892.36
2019-03-18T17:26:21.911Z,100893.36
2019-03-18T17:28:53.276Z,100900.91
2019-03-18T17:31:24.654Z,100897.13
2019-03-18T17:33:55.968Z,100911.28
2019-03-18T17:36:27.231Z,100908.36
2019-03-18T17:38:58.544Z,100917.69
2019-03-18T17:41:29.991Z,100914.75
2019-03-18T17:44:01.328Z,100920.46
2019-03-18T17:46:32.622Z,100914.84
2019-03-18T17:49:03.975Z,100915.97
2019-03-18T17:51:47.501Z,100922.88
2019-03-18T17:54:20.364Z,100929.26
2019-03-18T17:56:51.655Z,100937.38
2019-03-18T17:59:23.162Z,100939.25
2019-03-18T18:01:54.401Z,100940.70
2019-03-18T18:04:26.748Z,100948.38
2019-03-18T18:06:58.079Z,100946.13
2019-03-18T18:09:29.500Z,100949.39
2019-03-18T18:12:02.006Z,100951.87
2019-03-18T18:14:36.966Z,100945.84
2019-03-18T18:17:08.199Z,100957.11
2019-03-18T18:19:39.727Z,100958.74
2019-03-18T18:22:10.974Z,100963.05
2019-03-18T18:24:42.214Z,100954.64
2019-03-18T18:27:20.857Z,100959.42
2019-03-18T18:29:52.211Z,100966.36
2019-03-18T18:32:23.735Z,100971.09
2019-03-18T18:34:55.194Z,100968.94
2019-03-18T18:37:26.556Z,100975.92
2019-03-18T18:39:58.039Z,100981.49
2019-03-18T18:42:29.380Z,100989.00
2019-03-18T18:45:00.995Z,100985.26
2019-03-18T18:47:32.588Z,100985.52
2019-03-18T18:50:05.606Z,100989.71
2019-03-18T18:52:37.285Z,100987.39
2019-03-18T18:55:13.364Z,100991.28
2019-03-18T18:57:46.487Z,101001.25
2019-03-18T19:00:24.939Z,101003.66
2019-03-18T19:02:56.816Z,101008.48
2019-03-18T19:05:28.366Z,101014.67
2019-03-18T19:07:59.647Z,101013.91
2019-03-18T19:10:31.020Z,101012.84
2019-03-18T19:13:02.559Z,101011.53
2019-03-18T19:15:41.470Z,101017.91
2019-03-18T19:18:13.171Z,101014.94
2019-03-18T19:20:44.400Z,101018.64
2019-03-18T19:23:16.794Z,101029.49
2019-03-18T19:25:49.273Z,101030.27
2019-03-18T19:28:22.484Z,101035.16
2019-03-18T19:30:53.982Z,101033.30
2019-03-18T19:33:26.253Z,101033.60
2019-03-18T19:36:00.776Z,101032.47
2019-03-18T19:38:32.053Z,101035.62
2019-03-18T19:41:15.848Z,101041.41
2019-03-18T19:43:42.371Z,101045.88
2019-03-18T19:46:14.037Z,101045.94
2019-03-18T19:48:45.367Z,101051.72
2019-03-18T19:51:16.641Z,101050.52
2019-03-18T19:53:49.470Z,101059.29
2019-03-18T19:56:21.045Z,101070.69
2019-03-18T19:58:56.009Z,101072.00
2019-03-18T20:01:27.282Z,101075.70
2019-03-18T20:03:58.594Z,101072.00
2019-03-18T20:06:30.117Z,101087.92
2019-03-18T20:09:01.399Z,101081.78
2019-03-18T20:11:33.507Z,101082.44
2019-03-18T20:14:05.033Z,101091.98
2019-03-18T20:16:36.271Z,101084.88
2019-03-18T20:19:07.622Z,101091.27
2019-03-18T20:21:38.932Z,101098.59
2019-03-18T20:24:11.464Z,101101.57
2019-03-18T20:26:42.877Z,101100.61
2019-03-18T20:29:14.163Z,101103.30
2019-03-18T20:31:45.457Z,101105.15
2019-03-18T20:34:18.295Z,101110.34
2019-03-18T20:36:49.641Z,101111.36
2019-03-18T20:39:21.008Z,101122.38
2019-03-18T20:41:52.307Z,101126.55
2019-03-18T20:44:25.382Z,101129.05
2019-03-18T20:46:57.933Z,101128.58
2019-03-18T20:49:30.876Z,101133.05
2019-03-18T20:52:02.410Z,101127.92
2019-03-18T20:54:34.292Z,101119.77
2019-03-18T20:57:05.819Z,101126.92
2019-03-18T20:59:37.338Z,101129.61
2019-03-18T21:02:08.841Z,101137.48
2019-03-18T21:04:40.256Z,101141.95
2019-03-18T21:07:11.831Z,101133.08
2019-03-18T21:09:43.215Z,101142.80
2019-03-18T21:12:15.895Z,101144.53
2019-03-18T21:14:47.338Z,101144.48
2019-03-18T21:17:18.997Z,101148.95
2019-03-18T21:19:50.367Z,101146.44
2019-03-18T21:22:21.594Z,101152.57
2019-03-18T21:24:53.024Z,101147.50
2019-03-18T21:27:24.360Z,101157.55
2019-03-18T21:29:59.984Z,101155.09
2019-03-18T21:32:31.266Z,101157.36
2019-03-18T21:35:04.848Z,101168.34
2019-03-18T21:37:36.069Z,101164.47
2019-03-18T21:40:19.414Z,101159.76
2019-03-18T21:42:51.798Z,101158.86
2019-03-18T21:45:28.100Z,101153.43
2019-03-18T21:47:59.324Z,101152.47
2019-03-18T21:50:30.629Z,101156.77
2019-03-18T21:53:01.931Z,101160.56
2019-03-18T21:55:33.354Z,101157.88
2019-03-18T21:58:04.787Z,101156.83
2019-03-18T22:00:37.263Z,101161.01
2019-03-18T22:03:11.398Z,101156.53
2019-03-18T22:05:42.931Z,101158.13
2019-03-18T22:08:20.077Z,101159.51
2019-03-18T22:10:51.442Z,101163.47
2019-03-18T22:13:22.662Z,101163.47
2019-03-18T22:15:55.354Z,101156.57
2019-03-18T22:18:30.503Z,101164.20
2019-03-18T22:21:03.293Z,101166.63
2019-03-18T22:23:34.589Z,101170.70
2019-03-18T22:26:06.164Z,101177.78
2019-03-18T22:28:37.478Z,101179.02
2019-03-18T22:31:10.804Z,101170.96
2019-03-18T22:33:42.110Z,101174.19
2019-03-18T22:36:13.437Z,101177.35
2019-03-18T22:38:45.728Z,101179.30
2019-03-18T22:41:24.891Z,101181.31
2019-03-18T22:43:56.264Z,101188.28
2019-03-18T22:46:27.742Z,101188.22
2019-03-18T22:48:59.968Z,101189.45
2019-03-18T22:51:31.423Z,101191.59
2019-03-18T22:54:02.656Z,101190.77
2019-03-18T22:56:34.125Z,101200.42
2019-03-18T22:59:05.504Z,101200.70
2019-03-18T23:01:36.856Z,101201.53
2019-03-18T23:04:08.361Z,101200.58
2019-03-18T23:06:39.938Z,101196.99
2019-03-18T23:09:11.245Z,101195.61
2019-03-18T23:11:42.597Z,101195.13
2019-03-18T23:14:13.933Z,101197.89
2019-03-18T23:16:46.576Z,101195.48
2019-03-18T23:19:18.094Z,101195.34
2019-03-18T23:21:49.446Z,101195.21
2019-03-18T23:24:20.668Z,101195.21
2019-03-18T23:26:52.024Z,101202.80
2019-03-18T23:29:23.333Z,101201.20
2019-03-18T23:31:56.016Z,101204.72
2019-03-18T23:34:28.312Z,101197.69
2019-03-18T23:36:59.734Z,101199.76
2019-03-18T23:39:31.028Z,101202.16
2019-03-18T23:42:02.312Z,101204.66
2019-03-18T23:44:33.635Z,101216.45
2019-03-18T23:47:05.010Z,101214.11
2019-03-18T23:49:36.311Z,101213.77
2019-03-18T23:52:07.663Z,101217.63
2019-03-18T23:54:38.884Z,101213.22
2019-03-18T23:57:10.175Z,101213.02
2019-03-18T23:59:41.396Z,101211.91
